Time;durP1;ratioP1;P1;durP2;ratioP2;P2;SDS_P1;SDS_P2;PMS_P1;PMS_P2;Temp;Humidity;BMP_temperature;BMP_pressure;BME280_temperature;BME280_humidity;BME280_pressure;Samples;Min_cycle;Max_cycle;Signal;HPM_P1;HPM_P2
2021/03/26 00:00:51;;;;;;;11.27;5.13;;;;;;;4.07;48.88;101797.84;5041782;28;20771;-68
2021/03/26 00:03:24;;;;;;;11.75;5.07;;;;;;;4.09;49.08;101801.28;5039823;28;20041;-68
2021/03/26 00:05:56;;;;;;;14.55;6.45;;;;;;;3.98;49.16;101796.13;5042594;28;20044;-66
2021/03/26 00:08:22;;;;;;;;;;;;;;;4.01;49.00;101796.13;5043476;28;20047;-66
2021/03/26 00:10:47;;;;;;;12.30;5.70;;;;;;;3.99;49.13;101794.38;5027449;28;20375;-66
2021/03/26 00:13:13;;;;;;;20.50;5.90;;;;;;;4.01;48.96;101793.53;5042421;28;20110;-66
2021/03/26 00:15:39;;;;;;;11.85;5.20;;;;;;;3.92;49.27;101792.66;5045842;28;20040;-66
2021/03/26 00:18:05;;;;;;;11.52;5.45;;;;;;;3.93;49.18;101792.63;5040254;28;20036;-66
2021/03/26 00:20:31;;;;;;;15.63;6.28;;;;;;;3.97;48.97;101796.09;5042159;28;20491;-66
2021/03/26 00:22:57;;;;;;;15.60;5.78;;;;;;;3.64;49.82;101791.69;5042414;28;20025;-67
2021/03/26 00:25:23;;;;;;;11.45;5.88;;;;;;;3.76;49.34;101796.88;5044426;28;20530;-68
2021/03/26 00:27:48;;;;;;;12.70;5.60;;;;;;;3.87;49.08;101790.03;5041373;28;20128;-67
2021/03/26 00:30:14;;;;;;;9.20;5.10;;;;;;;3.97;48.88;101784.03;5041322;28;20262;-67
2021/03/26 00:32:40;;;;;;;14.95;6.13;;;;;;;4.11;48.48;101793.53;5040923;28;20437;-67
2021/03/26 00:35:09;;;;;;;13.25;5.63;;;;;;;4.02;48.60;101784.03;5044685;28;20048;-69
2021/03/26 00:37:35;;;;;;;12.60;5.40;;;;;;;4.02;48.75;101784.03;5041362;28;20041;-67
2021/03/26 00:40:00;;;;;;;16.25;6.55;;;;;;;3.83;49.10;101783.16;5042853;28;20029;-69
2021/03/26 00:42:26;;;;;;;11.55;5.80;;;;;;;3.80;49.30;101785.69;5027231;28;20083;-68
2021/03/26 00:44:52;;;;;;;18.13;6.25;;;;;;;3.90;48.98;101784.88;5044347;28;20033;-67
2021/03/26 00:47:17;;;;;;;11.07;4.85;;;;;;;4.09;48.68;101780.59;5040983;28;20128;-66
2021/03/26 00:49:43;;;;;;;13.18;5.28;;;;;;;4.04;48.73;101784.06;5059541;28;20048;-68
2021/03/26 00:52:09;;;;;;;10.55;5.70;;;;;;;4.01;48.99;101783.19;5038288;28;20517;-66
2021/03/26 00:54:35;;;;;;;15.75;6.03;;;;;;;4.02;48.98;101784.03;5045707;28;20040;-65
2021/03/26 00:57:02;;;;;;;10.90;5.70;;;;;;;3.93;49.03;101782.28;5024843;28;20079;-65
2021/03/26 00:59:28;;;;;;;14.88;6.03;;;;;;;3.99;49.18;101776.28;5042368;28;20437;-66
2021/03/26 01:01:53;;;;;;;15.93;5.80;;;;;;;3.86;49.43;101766.75;5043770;28;20076;-66
2021/03/26 01:04:19;;;;;;;10.98;4.95;;;;;;;3.87;49.21;101776.25;5039933;28;20037;-66
2021/03/26 01:06:44;;;;;;;11.65;5.18;;;;;;;3.94;49.20;101770.22;5043883;28;20581;-70
2021/03/26 01:09:10;;;;;;;14.13;5.45;;;;;;;3.67;49.88;101777.06;5043260;28;20072;-67
2021/03/26 01:11:39;;;;;;;11.55;4.80;;;;;;;3.62;50.43;101781.34;5039117;28;20331;-68
2021/03/26 01:14:12;;;;;;;12.98;5.30;;;;;;;3.58;50.47;101767.56;5039779;28;20083;-67
2021/03/26 01:16:38;;;;;;;19.98;5.40;;;;;;;3.44;51.15;101764.03;5053239;28;20479;-68
2021/03/26 01:19:06;;;;;;;21.83;6.55;;;;;;;3.67;50.26;101760.66;5042020;28;20487;-68
2021/03/26 01:21:33;;;;;;;13.63;6.78;;;;;;;3.54;50.81;101764.97;5044110;28;20059;-66
2021/03/26 01:24:00;;;;;;;16.90;6.28;;;;;;;3.27;51.93;101760.47;5040668;28;20032;-66
2021/03/26 01:26:27;;;;;;;16.92;6.90;;;;;;;3.43;51.21;101757.16;5042043;28;20120;-66
2021/03/26 01:29:17;;;;;;;15.18;6.72;;;;;;;3.45;51.16;101747.69;5044023;28;20127;-67
2021/03/26 01:31:57;;;;;;;18.25;6.50;;;;;;;3.40;51.51;101754.53;5041639;28;20021;-67
2021/03/26 01:34:24;;;;;;;13.55;6.70;;;;;;;2.91;52.73;101756.84;5051615;28;20061;-67
2021/03/26 01:36:55;;;;;;;24.10;7.57;;;;;;;3.25;51.88;101760.50;5053540;28;20024;-67
2021/03/26 01:39:20;;;;;;;14.52;6.88;;;;;;;3.51;51.16;101755.44;5050631;28;20039;-66
2021/03/26 01:41:52;;;;;;;13.00;7.00;;;;;;;3.41;51.13;101748.53;5039058;28;20720;-67
2021/03/26 01:44:23;;;;;;;19.90;7.25;;;;;;;3.26;51.91;101745.84;5043232;28;20462;-66
2021/03/26 01:46:50;;;;;;;15.88;7.07;;;;;;;3.28;51.58;101744.13;5036773;28;20041;-66
2021/03/26 01:49:20;;;;;;;17.02;7.97;;;;;;;3.57;50.77;101739.09;5043766;28;20412;-66
2021/03/26 01:51:50;;;;;;;14.93;6.75;;;;;;;3.67;50.23;101742.56;5037114;28;20060;-66
2021/03/26 01:54:18;;;;;;;24.90;7.63;;;;;;;3.59;50.89;101733.06;5025579;28;20522;-67
2021/03/26 01:56:45;;;;;;;20.05;8.13;;;;;;;3.72;50.18;101733.97;5036730;28;20037;-66
2021/03/26 01:59:30;;;;;;;19.02;7.55;;;;;;;3.53;50.51;101716.69;5036704;28;20076;-66
2021/03/26 02:02:11;;;;;;;19.95;8.25;;;;;;;3.82;49.60;101728.81;5038158;28;20044;-69
2021/03/26 02:04:57;;;;;;;19.63;7.32;;;;;;;3.73;49.67;101722.75;5039562;28;20044;-68
2021/03/26 02:07:41;;;;;;;14.60;7.63;;;;;;;3.77;49.48;101710.72;5040620;28;20118;-68
2021/03/26 02:10:13;;;;;;;18.35;8.00;;;;;;;3.76;49.71;101709.88;5037608;28;20037;-68
2021/03/26 02:12:40;;;;;;;18.92;7.78;;;;;;;3.71;49.89;101708.97;5039704;28;20045;-68
2021/03/26 02:15:25;;;;;;;18.08;7.10;;;;;;;3.73;49.76;101712.41;5038275;28;20029;-69
2021/03/26 02:17:51;;;;;;;17.15;6.72;;;;;;;3.76;49.57;101706.38;5053955;28;20021;-68
2021/03/26 02:20:36;;;;;;;15.00;6.88;;;;;;;3.73;49.60;101704.66;5029364;28;20124;-68
2021/03/26 02:23:19;;;;;;;14.10;6.22;;;;;;;3.73;49.64;101706.41;5042091;28;20033;-69
2021/03/26 02:26:15;;;;;;;12.68;6.82;;;;;;;3.75;49.25;101708.13;5028438;28;20034;-70
2021/03/26 02:28:42;;;;;;;22.67;8.15;;;;;;;3.65;49.68;101702.91;5056509;28;20081;-68
2021/03/26 02:31:30;;;;;;;13.50;6.50;;;;;;;3.40;50.56;101710.59;5036614;28;20032;-68
2021/03/26 02:33:56;;;;;;;15.15;7.85;;;;;;;3.30;50.85;101698.53;5040489;28;20074;-68
2021/03/26 02:36:43;;;;;;;17.13;7.18;;;;;;;3.59;49.93;101706.38;5039265;28;20039;-69
2021/03/26 02:39:18;;;;;;;26.00;7.50;;;;;;;3.38;50.68;101707.16;5039489;28;20069;-67
2021/03/26 02:41:52;;;;;;;14.15;6.68;;;;;;;3.50;50.15;101701.19;5038373;28;20029;-68
2021/03/26 02:44:45;;;;;;;14.55;7.40;;;;;;;3.54;49.80;101705.50;5043043;28;20423;-68
2021/03/26 02:47:44;;;;;;;18.25;7.40;;;;;;;3.28;50.65;101700.22;5053370;28;20334;-68
2021/03/26 02:50:50;;;;;;;21.75;9.25;;;;;;;3.31;50.66;101701.09;5022864;28;20039;-71
2021/03/26 02:53:53;;;;;;;15.57;7.57;;;;;;;3.44;50.42;101701.16;5042114;28;20040;-66
2021/03/26 02:56:26;;;;;;;21.88;8.02;;;;;;;3.58;49.83;101702.94;5039797;28;20040;-67
2021/03/26 02:59:12;;;;;;;16.58;7.53;;;;;;;3.46;50.21;101696.84;5043768;28;20029;-67
2021/03/26 03:01:45;;;;;;;16.30;8.02;;;;;;;3.71;49.39;101695.19;5022081;28;20495;-67
2021/03/26 03:04:17;;;;;;;19.50;8.45;;;;;;;3.79;49.21;101690.91;5040141;28;20128;-68
2021/03/26 03:06:52;;;;;;;16.58;8.77;;;;;;;3.44;50.27;101698.56;5038768;28;20320;-68
2021/03/26 03:09:45;;;;;;;22.02;9.05;;;;;;;3.28;50.56;101698.47;5022546;28;20045;-68
2021/03/26 03:12:17;;;;;;;21.35;7.60;;;;;;;3.43;50.20;101702.88;5051795;28;20550;-67
2021/03/26 03:15:07;;;;;;;24.98;9.07;;;;;;;3.24;50.85;101698.47;5038591;28;20124;-66
2021/03/26 03:18:14;;;;;;;22.85;9.00;;;;;;;3.47;50.41;101695.97;5040199;28;20036;-67
2021/03/26 03:20:53;;;;;;;20.02;8.02;;;;;;;3.56;49.87;101701.16;4965843;28;21127;-68
2021/03/26 03:23:35;;;;;;;19.00;9.85;;;;;;;3.40;50.53;101700.28;4928264;28;20584;-69
2021/03/26 03:26:49;;;;;;;26.52;8.90;;;;;;;3.54;49.98;101701.19;5028677;28;20101;-67
2021/03/26 03:29:32;;;;;;;20.08;8.57;;;;;;;3.51;50.15;101703.75;5054687;28;20576;-69
2021/03/26 03:32:36;;;;;;;18.05;9.48;;;;;;;3.51;50.19;101697.72;5035949;28;20049;-67
2021/03/26 03:35:31;;;;;;;21.30;9.65;;;;;;;3.63;49.91;101696.88;5044257;28;20586;-68
2021/03/26 03:38:24;;;;;;;23.52;9.38;;;;;;;3.57;49.87;101696.00;5043219;28;20029;-69
2021/03/26 03:41:02;;;;;;;19.13;8.93;;;;;;;3.54;49.90;101693.44;5048216;28;20037;-67
2021/03/26 03:43:50;;;;;;;21.95;9.52;;;;;;;3.45;50.30;101692.53;5045100;28;20125;-67
2021/03/26 03:46:26;;;;;;;19.17;8.68;;;;;;;3.34;50.90;101688.22;5044798;28;20169;-68
2021/03/26 03:49:38;;;;;;;21.25;9.30;;;;;;;3.66;49.92;101683.97;5049491;28;20029;-67
2021/03/26 03:52:13;;;;;;;26.40;10.70;;;;;;;3.68;49.75;101677.94;5058014;28;20542;-67
2021/03/26 03:54:49;;;;;;;24.85;10.55;;;;;;;3.61;50.35;101676.22;5040561;28;20037;-67
2021/03/26 03:57:23;;;;;;;25.85;10.50;;;;;;;3.71;49.91;101677.09;5042916;28;20120;-67
2021/03/26 04:00:17;;;;;;;23.52;10.23;;;;;;;3.84;49.83;101665.91;5042792;28;20116;-68
2021/03/26 04:03:30;;;;;;;21.15;9.65;;;;;;;3.97;49.85;101677.97;5060403;28;20518;-67
2021/03/26 04:06:06;;;;;;;27.52;10.73;;;;;;;3.91;50.37;101674.53;5044571;28;20078;-65
2021/03/26 04:08:41;;;;;;;21.88;10.60;;;;;;;3.93;50.75;101665.91;5043343;28;20067;-68
2021/03/26 04:11:40;;;;;;;24.83;11.32;;;;;;;3.92;50.67;101661.59;5042526;28;20065;-68
2021/03/26 04:14:34;;;;;;;23.63;12.00;;;;;;;3.93;51.36;101670.22;5045884;28;20450;-68
2021/03/26 04:17:05;;;;;;;27.40;12.52;;;;;;;3.90;51.59;101660.72;5043341;28;20443;-69
2021/03/26 04:19:36;;;;;;;36.33;14.93;;;;;;;4.15;51.20;101660.72;5043498;28;20039;-67
2021/03/26 04:22:07;;;;;;;32.78;15.00;;;;;;;4.17;51.00;101659.88;5040615;28;20095;-68
2021/03/26 04:25:01;;;;;;;32.22;13.55;;;;;;;4.50;50.52;101655.50;5049240;28;20044;-69
2021/03/26 04:28:17;;;;;;;41.33;15.60;;;;;;;4.42;50.91;101665.88;5020306;28;20040;-70
2021/03/26 04:31:00;;;;;;;35.00;15.23;;;;;;;4.32;51.64;101659.00;5044018;28;20441;-68
2021/03/26 04:33:37;;;;;;;30.35;13.77;;;;;;;4.36;51.83;101657.25;5038687;28;20472;-68
2021/03/26 04:36:05;;;;;;;33.88;16.77;;;;;;;4.35;51.78;101655.53;5042955;28;20056;-68
2021/03/26 04:39:00;;;;;;;38.40;16.17;;;;;;;4.33;52.27;101665.88;5042695;28;20037;-68
2021/03/26 04:41:53;;;;;;;35.40;17.10;;;;;;;4.45;52.08;101659.81;5043532;28;20056;-68
2021/03/26 04:44:27;;;;;;;31.23;15.45;;;;;;;4.61;51.67;101645.13;5045504;28;20049;-68
2021/03/26 04:47:20;;;;;;;36.25;17.27;;;;;;;4.70;51.35;101642.50;5041703;28;20033;-70
2021/03/26 04:50:17;;;;;;;32.15;15.43;;;;;;;3.80;54.16;101659.84;5040953;28;20040;-68
2021/03/26 04:52:56;;;;;;;39.03;17.67;;;;;;;4.29;52.68;101643.44;5045673;28;20025;-69
2021/03/26 04:55:28;;;;;;;41.75;17.17;;;;;;;4.73;51.59;101639.91;5060044;28;20037;-69
2021/03/26 04:58:06;;;;;;;42.45;17.35;;;;;;;4.60;51.95;101639.06;5044993;28;20490;-69
2021/03/26 05:01:04;;;;;;;37.35;17.58;;;;;;;4.72;51.27;101645.97;5044099;28;20045;-68
2021/03/26 05:03:36;;;;;;;40.40;17.20;;;;;;;4.63;51.79;101643.38;5042668;28;20032;-67
2021/03/26 05:06:13;;;;;;;38.50;16.75;;;;;;;4.33;52.42;101652.94;5043453;28;20040;-68
2021/03/26 05:08:43;;;;;;;39.78;18.23;;;;;;;4.56;52.29;101649.44;5042073;28;20074;-69
2021/03/26 05:11:47;;;;;;;39.95;17.25;;;;;;;4.38;52.59;101643.44;5042477;28;20507;-70
2021/03/26 05:14:24;;;;;;;45.42;20.95;;;;;;;4.58;52.06;101643.38;5041209;28;20036;-67
2021/03/26 05:16:58;;;;;;;47.60;19.52;;;;;;;4.01;54.11;101646.06;5037490;28;20288;-69
2021/03/26 05:20:23;;;;;;;42.75;19.30;;;;;;;4.46;52.28;101640.84;5042323;28;20033;-70
2021/03/26 05:23:30;;;;;;;48.92;19.75;;;;;;;4.42;52.64;101644.31;5040333;28;20053;-71
2021/03/26 05:26:35;;;;;;;47.97;19.33;;;;;;;4.40;52.60;101636.53;4977626;28;20443;-70
2021/03/26 05:29:21;;;;;;;49.38;18.70;;;;;;;4.46;52.57;101640.00;4969637;28;20723;-70
2021/03/26 05:32:11;;;;;;;39.60;17.15;;;;;;;4.62;52.43;101636.50;5017917;28;20056;-71
2021/03/26 05:35:09;;;;;;;39.72;17.77;;;;;;;4.71;52.19;101633.88;5043109;28;20102;-70
2021/03/26 05:38:20;;;;;;;43.22;20.83;;;;;;;4.53;52.27;101631.34;5044186;28;20120;-70
2021/03/26 05:41:22;;;;;;;44.25;18.65;;;;;;;4.96;51.65;101631.22;5041812;28;20119;-72
2021/03/26 05:44:27;;;;;;;57.65;22.60;;;;;;;5.05;51.44;101633.75;5040705;28;20106;-71
2021/03/26 05:46:59;;;;;;;46.50;21.00;;;;;;;5.06;51.55;101632.91;5039414;28;20052;-70
2021/03/26 05:49:37;;;;;;;43.60;18.42;;;;;;;5.31;51.26;101627.59;5043785;28;20029;-69
2021/03/26 05:52:03;;;;;;;40.42;16.08;;;;;;;5.64;50.56;101634.28;5038011;28;20090;-71
2021/03/26 05:54:54;;;;;;;37.88;16.92;;;;;;;5.53;50.36;101624.00;5041639;28;20086;-70
2021/03/26 05:57:45;;;;;;;40.15;17.95;;;;;;;5.49;50.34;101622.28;5024016;28;20083;-69
2021/03/26 06:00:38;;;;;;;37.60;18.27;;;;;;;5.65;50.35;101623.03;5009887;28;20251;-68
2021/03/26 06:03:28;;;;;;;41.67;18.88;;;;;;;5.26;51.38;101630.22;5041104;28;20434;-70
2021/03/26 06:06:49;;;;;;;45.45;18.92;;;;;;;5.30;51.11;101628.44;5038747;28;20072;-69
2021/03/26 06:10:13;;;;;;;38.38;16.65;;;;;;;5.48;50.98;101625.75;5011900;28;20507;-71
2021/03/26 06:13:16;;;;;;;34.33;17.55;;;;;;;5.15;51.63;101622.50;5036787;28;20568;-70
2021/03/26 06:16:09;;;;;;;43.28;19.00;;;;;;;5.71;50.39;101629.91;5041158;28;23479;-69
2021/03/26 06:19:21;;;;;;;37.50;18.88;;;;;;;5.73;50.10;101618.66;5040389;28;20075;-70
2021/03/26 06:22:26;;;;;;;31.27;16.40;;;;;;;5.56;50.64;101613.56;5038061;28;20146;-70
2021/03/26 06:25:39;;;;;;;39.78;17.17;;;;;;;5.41;51.29;101605.91;5041535;28;20066;-69
2021/03/26 06:28:24;;;;;;;24.60;11.45;;;;;;;5.93;50.12;101602.91;5038985;28;20539;-70
2021/03/26 06:31:21;;;;;;;37.92;18.13;;;;;;;5.54;51.04;101606.69;5024322;28;20294;-70
2021/03/26 06:34:13;;;;;;;36.95;16.15;;;;;;;6.05;50.59;101607.97;5039963;28;20123;-71
2021/03/26 06:36:48;;;;;;;38.55;17.05;;;;;;;5.82;50.97;101623.75;5035552;28;20033;-71
2021/03/26 06:39:51;;;;;;;38.22;19.05;;;;;;;6.01;50.68;101626.19;5038102;28;20565;-70
2021/03/26 06:42:28;;;;;;;32.85;16.13;;;;;;;5.85;51.02;101622.88;5041135;28;20119;-68
2021/03/26 06:45:31;;;;;;;37.60;18.67;;;;;;;5.59;51.13;101623.94;5024968;28;20035;-69
2021/03/26 06:48:23;;;;;;;36.90;17.88;;;;;;;5.84;50.96;101624.63;5040520;28;20089;-69
2021/03/26 06:51:09;;;;;;;41.17;17.08;;;;;;;5.33;52.23;101621.53;5035386;28;20495;-69
2021/03/26 06:53:53;;;;;;;32.50;16.75;;;;;;;5.67;51.06;101619.53;5039979;28;20035;-70
2021/03/26 06:56:18;;;;;;;35.00;18.42;;;;;;;5.78;51.07;101616.03;5040125;28;20499;-71
2021/03/26 06:59:19;;;;;;;44.00;18.35;;;;;;;6.11;49.92;101611.41;5038113;28;20036;-71
2021/03/26 07:02:09;;;;;;;32.90;16.10;;;;;;;6.38;49.45;101610.31;5040350;28;20071;-71
2021/03/26 07:05:05;;;;;;;38.58;18.67;;;;;;;6.31;49.77;101604.31;5041365;28;20278;-70
2021/03/26 07:07:36;;;;;;;42.53;18.05;;;;;;;6.61;49.13;101607.44;5035900;28;20047;-70
2021/03/26 07:10:24;;;;;;;36.17;18.40;;;;;;;6.88;48.35;101604.50;5036185;28;20028;-70
2021/03/26 07:12:59;;;;;;;36.25;17.88;;;;;;;6.66;48.33;101600.44;5022944;28;20112;-70
2021/03/26 07:15:57;;;;;;;37.08;17.25;;;;;;;6.50;48.95;101598.03;5035847;28;20041;-69
2021/03/26 07:19:13;;;;;;;29.95;16.38;;;;;;;6.88;48.04;101596.69;5039357;28;20032;-69
2021/03/26 07:22:08;;;;;;;31.90;15.88;;;;;;;6.52;48.59;101603.22;5006062;28;20144;-71
2021/03/26 07:25:01;;;;;;;34.92;17.15;;;;;;;7.02;48.04;101601.75;5018491;28;20048;-70
2021/03/26 07:27:43;;;;;;;30.38;15.02;;;;;;;6.68;48.61;101604.75;5040962;28;20106;-70
2021/03/26 07:30:29;;;;;;;34.63;16.17;;;;;;;7.10;47.55;101605.06;5039429;28;20087;-70
2021/03/26 07:33:10;;;;;;;27.27;13.50;;;;;;;10.09;41.10;101602.69;5040216;28;20502;-69
2021/03/26 07:36:04;;;;;;;30.75;13.50;;;;;;;13.15;34.71;101589.28;5039087;28;20029;-70
2021/03/26 07:39:13;;;;;;;26.02;11.25;;;;;;;13.27;33.40;101599.28;5055767;28;20079;-69
2021/03/26 07:41:54;;;;;;;27.48;13.35;;;;;;;10.57;38.52;101609.22;5033185;28;20090;-70
2021/03/26 07:44:35;;;;;;;22.08;12.40;;;;;;;9.44;41.46;101600.78;5040253;28;20582;-71
2021/03/26 07:47:32;;;;;;;27.35;15.02;;;;;;;7.85;45.69;101607.47;5036206;28;20036;-69
2021/03/26 07:50:34;;;;;;;28.33;13.40;;;;;;;8.98;43.58;101600.09;5037724;28;20056;-71
2021/03/26 07:53:18;;;;;;;26.77;13.23;;;;;;;7.81;46.08;101598.84;5039023;28;20033;-69
2021/03/26 07:55:50;;;;;;;24.90;13.40;;;;;;;7.10;48.46;101604.22;5036318;28;20040;-70
2021/03/26 07:58:52;;;;;;;24.42;13.32;;;;;;;7.50;48.29;101606.25;5038478;28;20118;-71
2021/03/26 08:01:20;;;;;;;21.90;12.77;;;;;;;7.24;48.61;101612.69;5039833;28;20116;-69
2021/03/26 08:04:17;;;;;;;28.17;13.88;;;;;;;7.45;48.53;101623.66;5037950;28;20041;-70
2021/03/26 08:07:02;;;;;;;26.77;14.25;;;;;;;7.58;48.38;101614.84;5037574;28;20024;-70
2021/03/26 08:09:39;;;;;;;24.20;12.85;;;;;;;7.60;48.58;101617.38;5035782;28;20071;-69
2021/03/26 08:12:31;;;;;;;32.75;13.95;;;;;;;7.43;49.22;101612.44;5037587;28;20025;-69
2021/03/26 08:15:24;;;;;;;26.45;14.30;;;;;;;7.37;49.59;101609.91;5039977;28;20112;-69
2021/03/26 08:18:13;;;;;;;31.65;13.88;;;;;;;6.37;52.08;101622.41;5036443;28;20079;-69
2021/03/26 08:20:50;;;;;;;31.73;12.80;;;;;;;6.91;51.33;101617.47;5046320;28;20052;-69
2021/03/26 08:23:32;;;;;;;27.80;14.75;;;;;;;5.96;54.91;101607.22;5041235;28;20041;-69
2021/03/26 08:26:13;;;;;;;28.13;12.50;;;;;;;6.75;52.93;101595.13;5041663;28;20037;-71
2021/03/26 08:29:24;;;;;;;27.42;12.95;;;;;;;7.19;52.22;101601.50;5041516;28;20029;-70
2021/03/26 08:32:26;;;;;;;27.85;12.43;;;;;;;7.68;51.71;101603.38;5042825;28;20041;-71
2021/03/26 08:34:55;;;;;;;;;;;;;;;8.16;50.27;101602.56;5055635;28;20112;-69
2021/03/26 08:37:28;;;;;;;28.02;12.95;;;;;;;7.93;50.31;101605.56;5042288;28;19943;-70
2021/03/26 08:39:59;;;;;;;22.77;11.63;;;;;;;7.71;50.58;101598.13;5042352;28;20044;-69
2021/03/26 08:42:38;;;;;;;25.95;13.82;;;;;;;7.97;50.30;101596.81;5044157;28;20033;-69
2021/03/26 08:45:13;;;;;;;28.85;13.05;;;;;;;8.90;48.69;101590.72;5040908;28;20045;-70
2021/03/26 08:47:48;;;;;;;25.10;13.50;;;;;;;8.71;48.03;101598.06;5038437;28;20572;-70
2021/03/26 08:50:34;;;;;;;22.27;11.85;;;;;;;8.80;48.90;101595.25;5043304;28;20409;-70
2021/03/26 08:53:12;;;;;;;27.90;13.40;;;;;;;8.78;48.51;101597.03;5042637;28;20041;-69
2021/03/26 08:56:00;;;;;;;24.00;12.60;;;;;;;9.63;46.50;101598.59;5040515;28;20032;-69
2021/03/26 08:58:52;;;;;;;26.90;11.50;;;;;;;9.54;46.42;101598.81;5039627;28;20106;-70
2021/03/26 09:01:42;;;;;;;18.30;10.88;;;;;;;9.48;45.48;101588.53;5040812;28;20081;-69
2021/03/26 09:04:28;;;;;;;21.75;10.73;;;;;;;8.70;48.17;101583.28;5041227;28;20078;-68
2021/03/26 09:07:15;;;;;;;23.38;11.90;;;;;;;7.78;49.23;101585.88;5043777;28;20036;-69
2021/03/26 09:10:02;;;;;;;21.88;11.00;;;;;;;8.76;48.56;101585.78;5040841;28;20047;-70
2021/03/26 09:12:43;;;;;;;23.88;12.55;;;;;;;8.20;48.84;101592.94;5056810;28;20601;-69
2021/03/26 09:15:53;;;;;;;25.13;12.13;;;;;;;8.90;47.34;101590.72;5042256;28;20040;-69
2021/03/26 09:18:37;;;;;;;22.65;10.65;;;;;;;8.84;48.69;101583.03;5041806;28;20060;-69
2021/03/26 09:21:30;;;;;;;21.58;10.90;;;;;;;10.01;45.45;101581.13;5040294;28;20178;-69
2021/03/26 09:24:18;;;;;;;21.52;10.27;;;;;;;10.89;44.11;101579.56;5041459;28;20037;-69
2021/03/26 09:27:02;;;;;;;20.88;10.57;;;;;;;10.63;43.29;101583.75;5038845;28;20039;-68
2021/03/26 09:29:40;;;;;;;21.60;11.18;;;;;;;10.26;44.34;101575.22;5040574;28;20055;-68
2021/03/26 09:32:12;;;;;;;23.58;10.10;;;;;;;9.70;45.44;101579.28;5041337;28;20323;-68
2021/03/26 09:34:48;;;;;;;15.65;9.18;;;;;;;8.54;47.89;101577.53;5037673;28;20028;-69
2021/03/26 09:37:33;;;;;;;17.67;9.48;;;;;;;9.51;47.36;101580.63;5039496;28;20044;-68
2021/03/26 09:40:01;;;;;;;17.25;9.35;;;;;;;8.64;48.23;101589.47;5042715;28;20037;-69
2021/03/26 09:42:37;;;;;;;22.25;10.00;;;;;;;8.65;48.80;101586.00;5039438;28;20150;-69
2021/03/26 09:45:11;;;;;;;25.25;10.27;;;;;;;8.26;48.94;101583.28;5042774;28;20329;-68
2021/03/26 09:48:12;;;;;;;18.05;10.02;;;;;;;8.46;49.13;101598.53;5041023;28;20075;-70
2021/03/26 09:50:45;;;;;;;26.38;11.77;;;;;;;8.52;49.44;101593.19;5039831;28;20048;-68
2021/03/26 09:53:15;;;;;;;22.48;11.07;;;;;;;8.57;49.28;101570.50;5042183;28;20305;-69
2021/03/26 09:55:43;;;;;;;26.02;11.95;;;;;;;8.21;50.82;101577.31;5042742;28;20398;-68
2021/03/26 09:58:35;;;;;;;25.90;12.88;;;;;;;7.76;52.08;101574.63;5041615;28;20654;-68
2021/03/26 10:01:16;;;;;;;29.92;11.52;;;;;;;8.03;51.18;101569.84;5040408;28;20096;-67
2021/03/26 10:04:00;;;;;;;24.10;12.40;;;;;;;8.17;51.23;101573.03;5041368;28;20082;-69
2021/03/26 10:06:34;;;;;;;25.95;13.40;;;;;;;7.36;52.89;101571.81;5042576;28;20105;-72
2021/03/26 10:09:23;;;;;;;34.55;13.13;;;;;;;8.22;50.91;101578.16;5040045;28;23078;-69
2021/03/26 10:12:06;;;;;;;21.52;11.40;;;;;;;7.88;51.27;101579.63;5058064;23;20072;-70
2021/03/26 10:14:37;;;;;;;23.25;12.30;;;;;;;8.70;49.21;101572.88;5009197;28;20353;-68
2021/03/26 10:17:11;;;;;;;27.40;12.67;;;;;;;9.30;48.15;101580.25;5039494;28;20037;-68
2021/03/26 10:19:46;;;;;;;27.35;12.10;;;;;;;9.80;47.61;101575.56;5040605;28;20025;-70
2021/03/26 10:22:36;;;;;;;28.13;12.27;;;;;;;10.02;45.84;101570.63;5037813;28;20477;-69
2021/03/26 10:25:06;;;;;;;22.08;11.85;;;;;;;10.42;45.02;101558.25;5047311;28;20033;-68
2021/03/26 10:27:48;;;;;;;24.55;11.55;;;;;;;10.58;44.65;101558.66;5063628;28;20028;-68
2021/03/26 10:30:22;;;;;;;18.23;10.68;;;;;;;9.95;45.70;101557.81;5048240;28;20032;-68
2021/03/26 10:32:49;;;;;;;21.67;10.15;;;;;;;10.59;44.14;101560.38;5063585;28;20025;-69
2021/03/26 10:35:21;;;;;;;24.55;11.63;;;;;;;10.34;44.29;101555.84;5061991;28;20490;-68
2021/03/26 10:38:22;;;;;;;19.73;10.95;;;;;;;10.54;43.95;101547.44;5064306;28;20060;-68
2021/03/26 10:41:04;;;;;;;21.20;9.85;;;;;;;10.76;42.85;101546.81;5022268;28;20380;-68
2021/03/26 10:43:40;;;;;;;20.98;10.10;;;;;;;11.20;42.26;101542.00;5044744;28;20166;-69
2021/03/26 10:46:12;;;;;;;16.67;8.38;;;;;;;10.95;42.88;101532.31;5061649;28;20029;-70
2021/03/26 10:48:44;;;;;;;16.83;9.75;;;;;;;11.28;41.84;101528.66;5064143;28;20056;-69
2021/03/26 10:51:16;;;;;;;26.38;11.80;;;;;;;11.45;41.88;101532.41;5061107;28;20036;-69
2021/03/26 10:53:48;;;;;;;17.92;10.90;;;;;;;12.01;40.83;101525.31;5046426;28;20032;-69
2021/03/26 10:56:33;;;;;;;;;;;;;;;13.09;38.79;101523.00;5064906;28;20177;-69
2021/03/26 10:59:06;;;;;;;20.63;10.77;;;;;;;13.45;38.11;101518.91;5040373;28;20319;-69
2021/03/26 11:01:38;;;;;;;17.38;10.48;;;;;;;13.20;38.67;101517.28;5064228;28;20024;-69
2021/03/26 11:04:23;;;;;;;21.10;10.55;;;;;;;13.36;38.02;101507.03;5060327;28;20032;-69
2021/03/26 11:06:56;;;;;;;20.50;10.27;;;;;;;13.42;37.42;101503.28;5063633;28;20371;-69
2021/03/26 11:09:29;;;;;;;19.73;10.13;;;;;;;13.84;36.80;101503.25;5061319;28;20088;-71
2021/03/26 11:12:07;;;;;;;17.20;8.88;;;;;;;14.42;36.83;101498.94;5062391;28;20215;-70
2021/03/26 11:14:56;;;;;;;14.15;8.77;;;;;;;14.94;35.02;101493.84;5063470;28;20246;-69
2021/03/26 11:17:37;;;;;;;13.88;7.10;;;;;;;14.11;35.50;101489.78;5043583;28;20052;-71
2021/03/26 11:20:43;;;;;;;14.65;7.97;;;;;;;14.52;36.05;101494.94;5067607;28;20036;-69
2021/03/26 11:23:28;;;;;;;16.65;8.20;;;;;;;15.86;33.32;101475.16;5044969;28;20040;-70
2021/03/26 11:26:06;;;;;;;12.68;6.88;;;;;;;13.40;36.03;101469.19;5064444;28;20036;-68
2021/03/26 11:28:53;;;;;;;13.25;7.75;;;;;;;15.48;33.49;101468.34;5047827;28;20200;-69
2021/03/26 11:31:28;;;;;;;12.95;7.25;;;;;;;15.80;32.83;101460.53;5062475;28;20048;-70
2021/03/26 11:34:09;;;;;;;14.55;6.55;;;;;;;15.32;33.63;101451.59;5065323;28;20032;-69
2021/03/26 11:36:46;;;;;;;18.20;7.00;;;;;;;15.52;33.04;101458.50;5061873;28;20032;-70
2021/03/26 11:39:12;;;;;;;16.05;7.65;;;;;;;14.67;34.33;101459.19;5060639;28;20399;-70
2021/03/26 11:41:43;;;;;;;11.63;5.95;;;;;;;14.37;34.79;101462.31;5045973;28;20034;-70
2021/03/26 11:44:13;;;;;;;12.57;5.67;;;;;;;14.95;33.47;101448.16;5062995;28;20044;-69
2021/03/26 11:46:43;;;;;;;11.63;5.70;;;;;;;14.62;32.96;101451.50;5061231;28;20088;-69
2021/03/26 11:49:27;;;;;;;12.93;5.80;;;;;;;14.19;33.66;101443.00;5060095;28;20114;-69
2021/03/26 11:52:04;;;;;;;12.15;5.43;;;;;;;13.78;33.92;101432.56;5063338;28;20121;-69
2021/03/26 11:54:46;;;;;;;11.00;4.78;;;;;;;14.36;32.70;101419.38;5065321;28;20514;-69
2021/03/26 11:57:36;;;;;;;8.85;4.40;;;;;;;15.00;31.84;101426.88;5063085;28;20036;-69
2021/03/26 12:00:12;;;;;;;9.43;4.93;;;;;;;15.81;31.29;101422.69;5062804;28;20078;-69
2021/03/26 12:02:50;;;;;;;9.85;5.25;;;;;;;16.07;30.28;101423.97;5045651;28;20036;-68
2021/03/26 12:05:28;;;;;;;10.10;5.57;;;;;;;14.99;31.74;101415.47;5046993;28;20061;-69
2021/03/26 12:08:24;;;;;;;11.57;5.63;;;;;;;15.37;30.43;101402.19;5064398;28;20032;-69
2021/03/26 12:11:14;;;;;;;10.52;5.05;;;;;;;14.47;31.55;101411.00;5047389;28;20037;-69
2021/03/26 12:13:50;;;;;;;9.25;4.25;;;;;;;14.28;31.27;101400.50;5061211;28;20107;-68
2021/03/26 12:16:20;;;;;;;9.80;5.40;;;;;;;14.51;31.93;101399.41;5061898;28;20029;-69
2021/03/26 12:19:13;;;;;;;11.88;5.10;;;;;;;13.75;32.05;101393.31;5063069;28;20138;-69
2021/03/26 12:21:57;;;;;;;7.32;4.55;;;;;;;13.03;32.94;101402.53;5065835;28;20028;-69
2021/03/26 12:24:46;;;;;;;11.35;4.28;;;;;;;12.67;33.54;101403.09;5062324;28;20503;-69
2021/03/26 12:27:37;;;;;;;10.50;5.22;;;;;;;13.37;32.55;101405.50;5046853;28;20025;-69